Aleksin, Russia
Current Conditions -  °F | °C
As of 12:30 PM on Monday 24 Nov 2014 (Local Time) from UUMO Reporting Station
Overcast Overcast  
Wind Chill: 23°   Ceiling: 1200
Heat Index: 28°   Visibility: 4mi
Dew Point: 27°   Wind: 4mph
Humidity: 93%   Direction: 140°SE
Pressure: 30.68"   Gusts: NA
Location:  54.52°N, 37.09°E
Report Text: UUMO 240930Z 14002MPS 7000 SCT006 OVC012 M02/M03 Q1039 NOSIGRMK QFE764/1019 QBB180 26390135
Loading
Personal Weather Stations






























Interactive Weather Map New forecast layout! Learn more

10-Day Weather Forecast

Advertisements
Track Severe Weather on mobile